Time;durP1;ratioP1;P1;durP2;ratioP2;P2;SDS_P1;SDS_P2;PMS_P1;PMS_P2;Temp;Humidity;BMP_temperature;BMP_pressure;BME280_temperature;BME280_humidity;BME280_pressure;Samples;Min_cycle;Max_cycle;Signal;HPM_P1;HPM_P2
2021/12/20 00:00:56;;;;;;;0.93;0.90;;;0.90;99.90;;;;;;5089683;28;20197;-88
2021/12/20 00:03:22;;;;;;;0.80;0.80;;;0.80;99.90;;;;;;5090369;28;20193;-88
2021/12/20 00:05:48;;;;;;;1.00;0.90;;;0.80;99.90;;;;;;5089155;28;22483;-88
2021/12/20 00:08:13;;;;;;;0.87;0.87;;;0.70;99.90;;;;;;5089893;28;20619;-88
2021/12/20 00:10:39;;;;;;;1.13;1.03;;;0.90;99.90;;;;;;5089552;28;20201;-87
2021/12/20 00:13:05;;;;;;;1.10;1.00;;;0.80;99.90;;;;;;5088901;28;20236;-86
2021/12/20 00:15:31;;;;;;;0.87;0.87;;;0.70;99.90;;;;;;5087946;28;20499;-87
2021/12/20 00:17:56;;;;;;;1.00;0.90;;;0.60;99.90;;;;;;5089957;28;20247;-88
2021/12/20 00:20:22;;;;;;;1.10;1.00;;;0.50;99.90;;;;;;5089818;28;20275;-88
2021/12/20 00:22:47;;;;;;;0.80;0.80;;;0.40;99.90;;;;;;5089482;28;20236;-88
2021/12/20 00:25:13;;;;;;;1.03;0.93;;;0.50;99.90;;;;;;5071864;28;20308;-88
2021/12/20 00:27:39;;;;;;;1.10;1.00;;;0.50;99.90;;;;;;5089240;28;20625;-88
2021/12/20 00:30:06;;;;;;;0.90;0.90;;;0.50;99.90;;;;;;5089663;28;20285;-88
2021/12/20 00:32:32;;;;;;;1.07;0.97;;;0.50;99.90;;;;;;5086323;28;20435;-87
2021/12/20 00:34:57;;;;;;;1.10;1.00;;;0.50;99.90;;;;;;5087518;28;20447;-87
2021/12/20 00:40:23;;;;;;;1.07;0.97;;;0.40;99.90;;;;;;5088352;28;20192;-88
2021/12/20 00:42:50;;;;;;;0.93;0.90;;;0.40;99.90;;;;;;5089205;28;20430;-88
2021/12/20 00:45:17;;;;;;;1.00;0.90;;;0.40;99.90;;;;;;5088487;28;20470;-87
2021/12/20 00:47:43;;;;;;;1.20;1.10;;;0.40;99.90;;;;;;5088755;28;20530;-88
2021/12/20 00:50:11;;;;;;;1.00;0.90;;;0.40;99.90;;;;;;5089014;28;20882;-88
2021/12/20 00:52:37;;;;;;;1.40;1.30;;;0.50;99.90;;;;;;5086786;28;20216;-88
2021/12/20 00:55:03;;;;;;;0.80;0.80;;;0.50;99.90;;;;;;5070763;28;20470;-88
2021/12/20 00:57:29;;;;;;;1.00;0.90;;;0.50;99.90;;;;;;5088909;28;20438;-88
2021/12/20 00:59:54;;;;;;;1.13;1.03;;;0.50;99.90;;;;;;5088875;28;21028;-87
2021/12/20 01:02:20;;;;;;;0.80;0.80;;;0.40;99.90;;;;;;5088689;28;20250;-88
2021/12/20 01:04:45;;;;;;;1.00;0.90;;;0.30;99.90;;;;;;5088338;28;20337;-87
2021/12/20 01:07:11;;;;;;;1.40;1.30;;;0.30;99.90;;;;;;5087298;28;20662;-87
2021/12/20 01:09:37;;;;;;;0.80;0.80;;;0.30;99.90;;;;;;5088325;28;20193;-88
2021/12/20 01:12:06;;;;;;;1.10;1.00;;;0.30;99.90;;;;;;5088624;28;20254;-88
2021/12/20 01:14:35;;;;;;;0.87;0.87;;;0.40;99.90;;;;;;5085823;28;20449;-88
2021/12/20 01:17:05;;;;;;;0.80;0.80;;;0.30;99.90;;;;;;5081744;28;20438;-88
2021/12/20 01:19:32;;;;;;;0.80;0.70;;;0.30;99.90;;;;;;5089452;28;20477;-87
2021/12/20 01:21:59;;;;;;;0.90;0.87;;;0.30;99.90;;;;;;5088956;28;20993;-88
2021/12/20 01:24:24;;;;;;;1.00;0.90;;;0.40;99.90;;;;;;5088782;28;20503;-88
2021/12/20 01:26:50;;;;;;;1.20;1.10;;;0.30;99.90;;;;;;5089190;28;20447;-87
2021/12/20 01:29:15;;;;;;;1.20;1.10;;;0.30;99.90;;;;;;5089358;28;20328;-88
2021/12/20 01:31:41;;;;;;;0.97;0.90;;;0.30;99.90;;;;;;5081682;28;20663;-88
2021/12/20 01:34:06;;;;;;;2.40;2.30;;;0.30;99.90;;;;;;5088970;28;20431;-88
2021/12/20 01:36:32;;;;;;;0.97;0.90;;;0.30;99.90;;;;;;5088668;28;20916;-88
2021/12/20 01:38:58;;;;;;;1.10;1.00;;;0.30;99.90;;;;;;5088529;28;20193;-88
2021/12/20 01:41:24;;;;;;;1.00;0.90;;;0.00;99.90;;;;;;5088838;28;20177;-88
2021/12/20 01:43:50;;;;;;;0.83;0.83;;;0.10;99.90;;;;;;5088533;28;20235;-88
2021/12/20 01:46:16;;;;;;;0.80;0.80;;;0.10;99.90;;;;;;5070632;28;20228;-88
2021/12/20 01:48:43;;;;;;;1.00;0.90;;;0.20;99.90;;;;;;5085548;28;20439;-88
2021/12/20 01:51:43;;;;;;;0.80;0.80;;;0.10;99.90;;;;;;5088756;28;20181;-88
2021/12/20 01:54:04;;;;;;;0.97;0.90;;;0.10;99.90;;;;;;5079885;28;20443;-88
2021/12/20 01:56:33;;;;;;;1.03;0.93;;;0.10;99.90;;;;;;5092324;28;20442;-88
2021/12/20 01:59:07;;;;;;;1.10;1.00;;;0.10;99.90;;;;;;5092511;28;20233;-88
2021/12/20 02:01:32;;;;;;;1.00;0.90;;;0.10;99.90;;;;;;5092476;28;20461;-88
2021/12/20 02:04:01;;;;;;;1.07;1.00;;;0.10;99.90;;;;;;5074132;28;20530;-88
2021/12/20 02:06:33;;;;;;;1.00;0.90;;;0.10;99.90;;;;;;5090071;28;20478;-88
2021/12/20 02:09:03;;;;;;;0.83;0.83;;;0.00;99.90;;;;;;5091333;28;20560;-88
2021/12/20 02:11:29;;;;;;;1.43;1.20;;;0.00;99.90;;;;;;5091910;28;20485;-88
2021/12/20 02:13:54;;;;;;;0.80;0.80;;;0.00;99.90;;;;;;5073539;28;20495;-88
2021/12/20 02:16:20;;;;;;;3.63;1.53;;;-0.10;99.90;;;;;;5092506;28;20317;-89
2021/12/20 02:18:46;;;;;;;0.80;0.77;;;0.00;99.90;;;;;;5091702;28;20196;-88
2021/12/20 02:21:12;;;;;;;0.80;0.80;;;0.00;99.90;;;;;;5088907;28;20213;-88
2021/12/20 02:23:38;;;;;;;1.00;0.90;;;0.00;99.90;;;;;;5092203;28;20469;-88
2021/12/20 02:26:07;;;;;;;1.10;1.00;;;0.10;99.90;;;;;;5072058;28;20226;-88
2021/12/20 02:28:41;;;;;;;0.80;0.80;;;0.10;99.90;;;;;;5077842;28;20185;-88
2021/12/20 02:39:14;;;;;;;1.00;0.90;;;0.00;99.90;;;;;;5091407;28;20442;-88
2021/12/20 02:41:41;;;;;;;1.10;1.00;;;0.00;99.90;;;;;;5091539;28;20471;-89
2021/12/20 02:44:11;;;;;;;0.80;0.80;;;-0.10;99.90;;;;;;5091632;28;20441;-88
2021/12/20 02:49:15;;;;;;;1.70;1.60;;;-0.10;99.90;;;;;;5091111;28;20446;-89
2021/12/20 02:51:41;;;;;;;1.20;1.10;;;-0.20;99.90;;;;;;5090338;28;20431;-89
2021/12/20 02:54:08;;;;;;;0.80;0.80;;;-0.20;99.90;;;;;;5091204;28;20439;-89
2021/12/20 02:56:34;;;;;;;0.80;0.80;;;-0.10;99.90;;;;;;5090495;28;20427;-89
2021/12/20 02:59:00;;;;;;;0.93;0.90;;;-0.10;99.90;;;;;;5071425;28;20963;-89
2021/12/20 03:01:26;;;;;;;0.90;0.90;;;0.00;99.90;;;;;;5072252;28;20435;-89
2021/12/20 03:03:54;;;;;;;1.10;1.00;;;0.00;99.90;;;;;;5090386;28;20498;-90
2021/12/20 03:06:34;;;;;;;1.07;0.97;;;-0.10;99.90;;;;;;5090544;28;20296;-89
2021/12/20 03:09:00;;;;;;;1.10;1.00;;;-0.10;99.90;;;;;;5088035;28;20503;-89
2021/12/20 03:11:27;;;;;;;0.90;0.90;;;-0.30;99.90;;;;;;5091180;28;20435;-89
2021/12/20 03:14:04;;;;;;;1.00;0.90;;;-0.20;99.90;;;;;;5072984;28;20430;-90
2021/12/20 03:16:29;;;;;;;1.20;1.10;;;-0.20;99.90;;;;;;5090892;28;21043;-89
2021/12/20 03:18:55;;;;;;;1.00;0.90;;;-0.20;99.90;;;;;;5091362;28;20435;-89
2021/12/20 03:21:20;;;;;;;1.13;1.03;;;0.00;99.90;;;;;;5090055;28;20237;-89
2021/12/20 03:23:47;;;;;;;0.90;0.90;;;0.00;99.90;;;;;;5088512;28;20548;-90
2021/12/20 03:26:12;;;;;;;0.80;0.80;;;0.00;99.90;;;;;;5072223;28;20277;-90
2021/12/20 03:28:38;;;;;;;1.00;0.90;;;0.00;99.90;;;;;;5090903;28;20428;-89
2021/12/20 03:31:03;;;;;;;1.20;1.10;;;0.00;99.90;;;;;;5091365;28;20609;-90
2021/12/20 03:33:29;;;;;;;1.10;1.00;;;0.00;99.90;;;;;;5090960;28;20182;-89
2021/12/20 03:35:54;;;;;;;0.97;0.90;;;-0.10;99.90;;;;;;5091231;28;20716;-90
2021/12/20 03:38:20;;;;;;;2.20;1.63;;;0.10;99.90;;;;;;5090641;28;20196;-89
2021/12/20 03:40:45;;;;;;;0.90;0.90;;;0.10;99.90;;;;;;5091186;28;20181;-89
2021/12/20 03:43:12;;;;;;;1.00;0.90;;;0.10;99.90;;;;;;5088853;28;20185;-89
2021/12/20 03:45:38;;;;;;;1.00;0.90;;;0.10;99.90;;;;;;5090849;28;20216;-90
2021/12/20 03:48:04;;;;;;;0.80;0.80;;;0.10;99.90;;;;;;5090294;28;20432;-90
2021/12/20 03:50:29;;;;;;;0.80;0.80;;;0.00;99.90;;;;;;5070456;28;20181;-90
2021/12/20 03:52:55;;;;;;;0.93;0.90;;;0.00;99.90;;;;;;5071978;28;20589;-90
2021/12/20 03:55:21;;;;;;;1.00;0.90;;;0.00;99.90;;;;;;5090914;28;20224;-90
2021/12/20 03:57:46;;;;;;;0.87;0.83;;;-0.20;99.90;;;;;;5090485;28;20597;-89
2021/12/20 04:00:14;;;;;;;1.40;1.30;;;-0.10;99.90;;;;;;5067732;28;20615;-90
2021/12/20 04:02:44;;;;;;;2.97;1.47;;;-0.10;99.90;;;;;;5090460;28;20181;-90
2021/12/20 04:05:12;;;;;;;0.87;0.87;;;-0.10;99.90;;;;;;5089725;28;20553;-89
2021/12/20 04:07:38;;;;;;;1.00;0.90;;;-0.10;99.90;;;;;;5090607;28;20931;-89
2021/12/20 04:10:04;;;;;;;0.80;0.80;;;-0.20;99.90;;;;;;5088911;28;20439;-89
2021/12/20 04:12:30;;;;;;;1.10;1.00;;;-0.30;99.90;;;;;;5089254;28;20607;-89
2021/12/20 04:14:55;;;;;;;0.93;0.90;;;-0.30;99.90;;;;;;5071003;28;20518;-90
2021/12/20 04:17:21;;;;;;;0.90;0.90;;;-0.30;99.90;;;;;;5067619;28;20719;-89
2021/12/20 04:19:46;;;;;;;0.80;0.80;;;-0.20;99.90;;;;;;5088638;28;20267;-89
2021/12/20 04:22:14;;;;;;;6.07;1.47;;;-0.30;99.90;;;;;;5090113;28;20233;-90
2021/12/20 04:24:40;;;;;;;1.60;1.50;;;-0.30;99.90;;;;;;5089099;28;20185;-89
2021/12/20 04:27:05;;;;;;;1.07;0.97;;;-0.40;99.90;;;;;;5089867;28;20442;-90
2021/12/20 04:29:31;;;;;;;1.10;1.00;;;-0.40;99.90;;;;;;5087939;28;20193;-90
2021/12/20 04:31:57;;;;;;;0.90;0.90;;;-0.40;99.90;;;;;;5090351;28;20193;-90
2021/12/20 04:34:22;;;;;;;1.00;0.90;;;-0.40;99.90;;;;;;5061500;28;20177;-90
2021/12/20 04:36:48;;;;;;;1.10;1.00;;;-0.30;99.90;;;;;;5089622;28;20641;-90
2021/12/20 04:39:18;;;;;;;1.00;0.90;;;-0.30;99.90;;;;;;5090186;28;20261;-90
2021/12/20 04:41:43;;;;;;;0.97;0.90;;;-0.30;99.90;;;;;;5089712;28;20169;-89
2021/12/20 04:44:09;;;;;;;1.00;0.90;;;-0.30;99.90;;;;;;5090052;28;20491;-89
2021/12/20 04:46:34;;;;;;;0.97;0.90;;;-0.40;99.90;;;;;;5087228;28;20234;-90
2021/12/20 04:49:00;;;;;;;1.13;1.03;;;-0.40;99.90;;;;;;5073818;28;20192;-91
2021/12/20 04:51:26;;;;;;;1.00;0.93;;;-0.40;99.90;;;;;;5084050;28;20207;-90
2021/12/20 04:53:51;;;;;;;0.87;0.87;;;-0.40;99.90;;;;;;5091104;28;20177;-90
2021/12/20 04:56:16;;;;;;;0.80;0.80;;;-0.40;99.90;;;;;;5072307;28;20188;-90
2021/12/20 04:58:42;;;;;;;0.93;0.90;;;-0.50;99.90;;;;;;5091271;28;20560;-90
2021/12/20 05:01:08;;;;;;;1.10;1.00;;;-0.50;99.90;;;;;;5090015;28;20632;-90
2021/12/20 05:03:34;;;;;;;1.10;1.00;;;-0.50;99.90;;;;;;5088877;28;20642;-90
2021/12/20 05:05:59;;;;;;;1.00;0.90;;;-0.50;99.90;;;;;;5088880;28;20221;-89
2021/12/20 05:08:33;;;;;;;1.00;0.90;;;-0.50;99.90;;;;;;5087940;28;20189;-91
2021/12/20 05:10:58;;;;;;;1.10;1.00;;;-0.60;99.90;;;;;;5090985;28;20188;-90
2021/12/20 05:13:24;;;;;;;0.80;0.80;;;-0.60;99.90;;;;;;5089310;28;20437;-89
2021/12/20 05:15:49;;;;;;;0.90;0.90;;;-0.50;99.90;;;;;;5072300;28;20268;-90
2021/12/20 05:18:15;;;;;;;0.80;0.80;;;-0.60;99.90;;;;;;5072185;28;20189;-90
2021/12/20 05:20:40;;;;;;;0.90;0.90;;;-0.60;99.90;;;;;;5070659;28;20218;-90
2021/12/20 05:23:08;;;;;;;0.90;0.90;;;-0.60;99.90;;;;;;5085696;28;20225;-90
2021/12/20 05:25:34;;;;;;;1.10;1.00;;;-0.70;99.90;;;;;;5090939;28;20683;-90
2021/12/20 05:28:00;;;;;;;1.20;1.10;;;-0.70;99.90;;;;;;5072203;28;20475;-90
2021/12/20 05:30:26;;;;;;;1.70;1.60;;;-0.70;99.90;;;;;;5095409;28;20438;-90
2021/12/20 05:32:51;;;;;;;1.10;1.00;;;-0.70;99.90;;;;;;5074066;28;20555;-88
2021/12/20 05:35:17;;;;;;;1.10;1.00;;;-0.60;99.90;;;;;;5075835;28;20193;-90
2021/12/20 05:37:43;;;;;;;1.00;0.90;;;-0.60;99.90;;;;;;5094112;28;20185;-89
2021/12/20 05:40:16;;;;;;;1.03;0.93;;;-0.70;99.90;;;;;;5069340;28;20440;-89
2021/12/20 05:42:45;;;;;;;0.83;0.83;;;-0.70;99.90;;;;;;5092828;28;20177;-89
2021/12/20 05:45:11;;;;;;;0.80;0.77;;;-0.60;99.90;;;;;;5075085;28;20564;-89
2021/12/20 05:47:37;;;;;;;0.93;0.90;;;-0.70;99.90;;;;;;5094282;28;20435;-89
2021/12/20 05:50:04;;;;;;;1.10;1.00;;;-0.70;99.90;;;;;;5093674;28;20508;-89
2021/12/20 05:52:30;;;;;;;1.30;1.20;;;-0.60;99.90;;;;;;5074922;28;20603;-89
2021/12/20 05:54:55;;;;;;;1.10;1.00;;;-0.70;99.90;;;;;;5075886;28;20901;-89
2021/12/20 05:57:22;;;;;;;1.10;1.00;;;-0.70;99.90;;;;;;5091112;28;20737;-88
2021/12/20 05:59:48;;;;;;;1.40;1.30;;;-0.70;99.90;;;;;;5093717;28;20263;-89
2021/12/20 06:02:13;;;;;;;0.80;0.80;;;-0.70;99.90;;;;;;5070981;28;20439;-90
2021/12/20 06:04:39;;;;;;;1.07;1.00;;;-0.80;99.90;;;;;;5094171;28;20190;-90
2021/12/20 06:07:05;;;;;;;1.07;0.97;;;-0.80;99.90;;;;;;5076697;28;20671;-88
2021/12/20 06:09:31;;;;;;;1.10;1.00;;;-0.80;99.90;;;;;;5093415;28;20184;-90
2021/12/20 06:11:59;;;;;;;1.10;1.00;;;-0.70;99.90;;;;;;5092884;28;20270;-90
2021/12/20 06:14:26;;;;;;;0.97;0.90;;;-0.70;99.90;;;;;;5092210;28;20435;-90
2021/12/20 06:16:52;;;;;;;1.07;0.97;;;-0.70;99.90;;;;;;5089992;28;20536;-91
2021/12/20 06:19:17;;;;;;;1.17;1.07;;;-0.70;99.90;;;;;;5070205;28;20869;-89
2021/12/20 06:21:43;;;;;;;1.10;1.00;;;-0.70;99.90;;;;;;5092935;28;20220;-91
2021/12/20 06:24:08;;;;;;;0.90;0.90;;;-0.70;99.90;;;;;;5074327;28;20186;-90
2021/12/20 06:26:34;;;;;;;0.80;0.80;;;-0.60;99.90;;;;;;5089446;28;20221;-89
2021/12/20 06:28:59;;;;;;;0.80;0.80;;;-0.60;99.90;;;;;;5091940;28;20193;-90
2021/12/20 06:31:28;;;;;;;1.03;0.93;;;-0.70;99.90;;;;;;5073843;28;20193;-91
2021/12/20 06:33:53;;;;;;;1.10;1.00;;;-0.70;99.90;;;;;;5092014;28;20191;-89
2021/12/20 06:36:24;;;;;;;0.80;0.80;;;-0.80;99.90;;;;;;5092423;28;20439;-90
2021/12/20 06:38:53;;;;;;;1.13;1.03;;;-0.90;99.90;;;;;;5075771;28;20181;-91
2021/12/20 06:41:19;;;;;;;1.53;1.43;;;-0.90;99.90;;;;;;5074393;28;20811;-91
2021/12/20 06:43:44;;;;;;;1.07;0.97;;;-0.80;99.90;;;;;;5092917;28;20440;-90
2021/12/20 06:46:10;;;;;;;0.90;0.90;;;-0.80;99.90;;;;;;5092794;28;20540;-92
2021/12/20 06:48:35;;;;;;;1.13;1.03;;;-0.80;99.90;;;;;;5093333;28;20193;-91
2021/12/20 06:51:01;;;;;;;1.10;1.00;;;-0.80;99.90;;;;;;5093372;28;20276;-89
2021/12/20 06:53:27;;;;;;;0.90;0.90;;;-0.80;99.90;;;;;;5092360;28;20276;-91
2021/12/20 06:55:53;;;;;;;0.80;0.73;;;-0.90;99.90;;;;;;5093649;28;20443;-90
2021/12/20 06:58:18;;;;;;;1.20;1.10;;;-0.90;99.90;;;;;;5075662;28;20492;-92
2021/12/20 07:00:44;;;;;;;1.20;1.10;;;-0.90;99.90;;;;;;5092330;28;20650;-92
2021/12/20 07:03:10;;;;;;;0.80;0.70;;;-0.90;99.90;;;;;;5092291;28;20196;-92
2021/12/20 07:05:35;;;;;;;1.10;1.00;;;-0.90;99.90;;;;;;5094274;28;20695;-91
2021/12/20 07:08:02;;;;;;;1.10;1.00;;;-0.80;99.90;;;;;;5094208;28;20181;-90
2021/12/20 07:10:28;;;;;;;0.90;0.90;;;-0.80;99.90;;;;;;5093615;28;20185;-92
2021/12/20 07:12:55;;;;;;;0.90;0.90;;;-0.80;99.90;;;;;;5093918;28;20419;-92
2021/12/20 07:15:21;;;;;;;0.90;0.90;;;-0.80;99.90;;;;;;5094422;28;20177;-92
2021/12/20 07:17:46;;;;;;;0.90;0.90;;;-0.70;99.90;;;;;;5075597;28;20435;-93
2021/12/20 07:20:12;;;;;;;0.87;0.87;;;;;;;;;;5091225;28;20667;-91
2021/12/20 07:22:38;;;;;;;0.80;0.70;;;;;;;;;;5094492;28;20228;-93
2021/12/20 07:25:06;;;;;;;1.87;1.77;;;;;;;;;;5074504;28;20483;-90
2021/12/20 07:27:41;;;;;;;1.20;1.10;;;;;;;;;;5091156;28;20441;-90
2021/12/20 07:30:07;;;;;;;0.90;0.90;;;;;;;;;;5090515;28;20425;-91
2021/12/20 07:32:33;;;;;;;0.93;0.90;;;;;;;;;;5090504;28;20446;-93
2021/12/20 07:35:00;;;;;;;1.10;1.00;;;;;;;;;;5090119;28;20496;-94
2021/12/20 07:37:27;;;;;;;0.90;0.90;;;;;;;;;;5091398;28;20462;-95
2021/12/20 07:39:53;;;;;;;0.87;0.87;;;;;;;;;;5094736;28;20438;-95
2021/12/20 07:42:19;;;;;;;0.80;0.80;;;;;;;;;;5076219;28;20419;-94
2021/12/20 07:44:45;;;;;;;1.20;1.10;;;;;;;;;;5093251;28;20450;-93
2021/12/20 07:47:11;;;;;;;0.97;0.90;;;;;;;;;;5094016;28;20458;-94
2021/12/20 07:49:37;;;;;;;0.80;0.80;;;;;;;;;;5093980;28;20427;-95
2021/12/20 07:52:04;;;;;;;0.80;0.80;;;;;;;;;;5088374;28;20436;-93
2021/12/20 07:54:30;;;;;;;1.00;0.90;;;;;;;;;;5095977;28;20423;-94
2021/12/20 07:56:56;;;;;;;0.90;0.90;;;;;;;;;;5098333;28;20431;-96
2021/12/20 07:59:22;;;;;;;1.07;0.97;;;;;;;;;;5100019;28;21010;-87
2021/12/20 08:01:48;;;;;;;0.87;0.87;;;;;;;;;;5083807;28;20435;-87
2021/12/20 08:04:15;;;;;;;1.40;1.30;;;;;;;;;;5087417;28;20446;-87
2021/12/20 08:06:43;;;;;;;1.10;1.00;;;;;;;;;;5089195;28;20543;-87
2021/12/20 08:09:10;;;;;;;0.80;0.80;;;;;;;;;;5088673;28;20435;-87
2021/12/20 08:11:36;;;;;;;0.80;0.80;;;;;;;;;;5087543;28;20443;-88
2021/12/20 08:14:02;;;;;;;0.80;0.80;;;;;;;;;;5081736;28;20427;-87
2021/12/20 08:16:27;;;;;;;1.07;1.00;;;;;;;;;;5088886;28;20441;-87
2021/12/20 08:18:53;;;;;;;1.10;1.00;;;;;;;;;;5071895;28;20430;-88
2021/12/20 08:21:21;;;;;;;1.73;1.63;;;;;;;;;;5090116;28;20458;-87
2021/12/20 08:23:47;;;;;;;1.20;1.10;;;;;;;;;;5090240;28;20416;-87
2021/12/20 08:26:13;;;;;;;1.10;1.00;;;;;;;;;;5089808;28;20493;-87
2021/12/20 08:28:39;;;;;;;1.10;1.00;;;;;;;;;;5090508;28;20782;-88
2021/12/20 08:31:06;;;;;;;0.97;0.90;;;;;;;;;;5090310;28;20508;-88
2021/12/20 08:33:35;;;;;;;1.13;1.03;;;;;;;;;;5070757;28;20427;-87
2021/12/20 08:36:02;;;;;;;1.10;1.00;;;;;;;;;;5070602;28;20443;-87
2021/12/20 08:38:28;;;;;;;1.07;0.97;;;;;;;;;;5089524;28;20430;-87
2021/12/20 08:40:54;;;;;;;0.90;0.90;;;;;;;;;;5090040;28;20498;-87
2021/12/20 08:43:20;;;;;;;0.97;0.90;;;;;;;;;;5072085;28;21196;-87
2021/12/20 08:45:46;;;;;;;0.80;0.80;;;;;;;;;;5070512;28;21374;-87
2021/12/20 08:48:12;;;;;;;0.90;0.90;;;;;;;;;;5070202;28;21005;-87
2021/12/20 08:50:40;;;;;;;0.97;0.87;;;;;;;;;;5072147;28;20522;-87
2021/12/20 08:53:07;;;;;;;1.00;0.90;;;;;;;;;;5089588;28;20526;-88
2021/12/20 08:55:33;;;;;;;1.00;0.90;;;;;;;;;;5071859;28;20423;-88
2021/12/20 08:57:59;;;;;;;1.00;0.90;;;;;;;;;;5088929;28;20423;-88
2021/12/20 09:00:32;;;;;;;1.57;1.47;;;0.90;99.90;;;;;;5071900;28;21247;-89
2021/12/20 09:02:58;;;;;;;1.00;0.90;;;0.90;99.90;;;;;;5089856;28;20442;-88
2021/12/20 09:05:25;;;;;;;1.00;0.90;;;1.00;99.90;;;;;;5091811;28;20865;-89
2021/12/20 09:07:51;;;;;;;0.80;0.70;;;1.10;99.90;;;;;;5093812;28;20557;-89
2021/12/20 09:10:16;;;;;;;0.90;0.80;;;1.20;99.90;;;;;;5094035;28;20507;-88
2021/12/20 09:12:44;;;;;;;1.00;0.90;;;1.40;99.90;;;;;;5075834;28;20189;-89
2021/12/20 09:15:16;;;;;;;1.00;0.90;;;1.50;99.90;;;;;;5092448;28;20447;-89
2021/12/20 09:17:44;;;;;;;2.70;1.27;;;1.60;99.90;;;;;;5092578;28;20529;-88
2021/12/20 09:20:12;;;;;;;0.80;0.73;;;1.80;99.90;;;;;;5090101;28;20438;-89
2021/12/20 09:22:50;;;;;;;0.83;0.80;;;1.80;99.90;;;;;;5075330;28;20555;-89
2021/12/20 09:25:21;;;;;;;0.80;0.70;;;2.00;99.90;;;;;;5069577;28;20517;-88
2021/12/20 09:27:47;;;;;;;1.00;0.90;;;2.20;99.90;;;;;;5091181;28;20441;-88
2021/12/20 09:30:13;;;;;;;0.87;0.80;;;2.30;99.90;;;;;;5088492;28;20454;-89
2021/12/20 09:32:39;;;;;;;0.80;0.70;;;2.40;99.90;;;;;;5067882;28;20450;-87
2021/12/20 09:35:05;;;;;;;0.80;0.70;;;2.70;99.90;;;;;;5091025;28;20954;-89
2021/12/20 09:37:31;;;;;;;1.83;1.43;;;2.90;99.90;;;;;;5092818;28;20193;-88
2021/12/20 09:39:59;;;;;;;0.90;0.80;;;3.10;99.90;;;;;;5092602;28;20437;-89
2021/12/20 09:42:25;;;;;;;0.80;0.60;;;3.40;99.90;;;;;;5091662;28;20303;-90
2021/12/20 09:44:52;;;;;;;0.90;0.80;;;3.50;99.90;;;;;;5074602;28;20974;-89
2021/12/20 09:47:17;;;;;;;0.80;0.70;;;3.40;99.90;;;;;;5071919;28;20185;-88
2021/12/20 09:49:43;;;;;;;0.90;0.80;;;3.30;99.90;;;;;;5067242;28;20443;-88
2021/12/20 09:52:09;;;;;;;0.80;0.70;;;3.50;99.90;;;;;;5089799;28;20201;-89
2021/12/20 09:54:35;;;;;;;0.90;0.80;;;3.60;99.90;;;;;;5073305;28;20184;-89
2021/12/20 09:57:02;;;;;;;0.90;0.80;;;3.90;99.90;;;;;;5070157;28;20824;-88
2021/12/20 09:59:30;;;;;;;0.90;0.70;;;3.90;99.90;;;;;;5091298;28;20231;-89
2021/12/20 10:01:57;;;;;;;0.90;0.80;;;4.00;99.90;;;;;;5091982;28;20529;-89
2021/12/20 10:04:23;;;;;;;1.00;0.90;;;;;;;;;;5088452;28;20498;-89
2021/12/20 10:06:55;;;;;;;0.80;0.60;;;3.70;99.90;;;;;;5093322;28;20474;-90
2021/12/20 10:09:26;;;;;;;0.80;0.60;;;3.90;99.90;;;;;;5086939;28;20481;-89
2021/12/20 10:12:12;;;;;;;0.90;0.77;;;;;;;;;;5094189;28;20964;-88
2021/12/20 10:15:04;;;;;;;0.90;0.80;;;4.00;99.90;;;;;;5100047;28;20434;-88
2021/12/20 10:17:52;;;;;;;0.90;0.70;;;4.20;99.90;;;;;;5083659;28;20588;-89
2021/12/20 10:20:20;;;;;;;1.67;1.13;;;;;;;;;;5083694;28;20428;-89
2021/12/20 10:22:47;;;;;;;0.80;0.70;;;4.60;99.90;;;;;;5091449;28;20489;-88
2021/12/20 10:25:24;;;;;;;0.80;0.63;;;4.50;99.90;;;;;;5091404;28;20473;-88
2021/12/20 10:27:50;;;;;;;0.90;0.70;;;;;;;;;;5088461;28;21564;-88
2021/12/20 10:30:20;;;;;;;0.87;0.70;;;;;;;;;;5091054;28;21082;-88
2021/12/20 10:32:46;;;;;;;0.80;0.70;;;;;;;;;;5087892;28;20446;-88
2021/12/20 10:35:31;;;;;;;0.90;0.70;;;5.20;99.90;;;;;;5090496;28;20427;-87
2021/12/20 10:38:03;;;;;;;0.80;0.60;;;;;;;;;;5091679;28;20445;-86
2021/12/20 10:40:29;;;;;;;0.90;0.70;;;;;;;;;;5080199;28;20484;-86
2021/12/20 10:42:57;;;;;;;0.80;0.60;;;;;;;;;;5091921;28;20522;-86
2021/12/20 10:45:23;;;;;;;0.80;0.60;;;;;;;;;;5083968;28;20542;-86
2021/12/20 10:47:50;;;;;;;0.83;0.60;;;;;;;;;;5090463;28;20438;-86
2021/12/20 10:50:42;;;;;;;0.90;0.60;;;;;;;;;;5089284;28;20943;-86
2021/12/20 10:53:22;;;;;;;0.90;0.80;;;;;;;;;;5084866;28;20534;-86
2021/12/20 10:55:49;;;;;;;1.00;0.90;;;;;;;;;;5092205;28;20426;-87
2021/12/20 10:58:20;;;;;;;1.20;0.60;;;;;;;;;;5074340;28;21000;-87
2021/12/20 11:00:46;;;;;;;0.80;0.60;;;;;;;;;;5092187;28;20439;-86
2021/12/20 11:03:36;;;;;;;0.90;0.70;;;;;;;;;;5076783;28;20922;-87
2021/12/20 11:11:22;;;;;;;0.90;0.60;;;5.90;99.90;;;;;;5093146;28;20476;-88
2021/12/20 11:13:48;;;;;;;7.03;1.63;;;6.10;99.90;;;;;;5091570;28;20945;-87
2021/12/20 11:16:37;;;;;;;0.90;0.60;;;6.00;99.90;;;;;;5091015;28;20435;-87
2021/12/20 11:19:22;;;;;;;1.20;0.70;;;6.00;99.90;;;;;;5085119;28;20196;-87
2021/12/20 11:21:50;;;;;;;0.80;0.70;;;6.10;99.90;;;;;;5092068;28;20504;-87
2021/12/20 11:24:18;;;;;;;0.80;0.60;;;;;;;;;;5085684;28;20519;-86
2021/12/20 11:26:44;;;;;;;0.80;0.70;;;6.30;99.90;;;;;;5092031;28;20811;-86
2021/12/20 11:29:11;;;;;;;0.80;0.60;;;;;;;;;;5090787;28;20431;-86
2021/12/20 11:31:37;;;;;;;1.10;1.00;;;;;;;;;;5091034;28;20431;-87
2021/12/20 11:34:03;;;;;;;0.80;0.60;;;6.40;99.90;;;;;;5086772;28;20965;-86
2021/12/20 11:36:29;;;;;;;5.33;1.70;;;;;;;;;;5090388;28;20439;-87
2021/12/20 11:38:58;;;;;;;0.90;0.60;;;6.50;99.90;;;;;;5089469;28;20439;-87
2021/12/20 11:41:24;;;;;;;0.97;0.87;;;;;;;;;;5068505;28;20451;-86
2021/12/20 11:43:50;;;;;;;0.80;0.57;;;;;;;;;;5087020;28;20442;-86
2021/12/20 11:46:19;;;;;;;0.80;0.60;;;6.90;99.90;;;;;;5082244;28;20479;-86
2021/12/20 11:48:45;;;;;;;0.80;0.60;;;7.10;99.90;;;;;;5088406;28;20453;-85
2021/12/20 11:51:11;;;;;;;0.90;0.60;;;;;;;;;;5085607;28;20450;-87
2021/12/20 11:53:40;;;;;;;0.80;0.60;;;;;;;;;;5085118;28;20193;-86
2021/12/20 11:56:06;;;;;;;0.90;0.60;;;;;;;;;;5082736;28;20434;-87
2021/12/20 11:58:33;;;;;;;1.00;0.90;;;6.90;99.90;;;;;;5089003;28;20432;-86
2021/12/20 12:01:07;;;;;;;0.80;0.60;;;;;;;;;;5089575;28;20450;-87
2021/12/20 12:03:38;;;;;;;1.43;0.80;;;;;;;;;;5088969;28;20440;-87
2021/12/20 12:06:06;;;;;;;1.77;1.10;;;;;;;;;;5094208;28;20486;-87
2021/12/20 12:08:33;;;;;;;0.90;0.70;;;;;;;;;;5085643;28;20477;-86
2021/12/20 12:11:05;;;;;;;0.90;0.60;;;;;;;;;;5087054;28;20933;-85
2021/12/20 12:14:00;;;;;;;0.90;0.60;;;;;;;;;;5084573;28;21238;-86
2021/12/20 12:16:46;;;;;;;0.90;0.60;;;;;;;;;;5088322;28;20433;-86
2021/12/20 12:19:12;;;;;;;1.33;0.60;;;8.30;99.90;;;;;;5084056;28;20427;-86
2021/12/20 12:21:40;;;;;;;0.90;0.60;;;8.40;99.90;;;;;;5090282;28;20478;-84
2021/12/20 12:24:12;;;;;;;0.90;0.60;;;8.60;99.90;;;;;;5090326;28;20216;-86
2021/12/20 12:26:43;;;;;;;0.90;0.50;;;8.40;99.90;;;;;;5088368;28;20574;-85
2021/12/20 12:29:21;;;;;;;2.30;0.83;;;8.00;99.90;;;;;;5084922;28;20431;-85
2021/12/20 12:31:52;;;;;;;0.90;0.50;;;8.10;99.90;;;;;;5071600;28;20442;-85
2021/12/20 12:34:18;;;;;;;0.87;0.50;;;8.40;99.90;;;;;;5087657;28;20467;-86
2021/12/20 12:36:45;;;;;;;1.10;0.80;;;8.60;99.90;;;;;;5088112;28;20481;-84
2021/12/20 12:39:25;;;;;;;0.90;0.50;;;8.80;99.90;;;;;;5084278;28;20442;-85
2021/12/20 12:42:00;;;;;;;0.83;0.50;;;9.10;99.90;;;;;;5088628;28;20435;-84
2021/12/20 12:44:28;;;;;;;0.80;0.50;;;9.30;99.90;;;;;;5071223;28;20430;-84
2021/12/20 12:47:12;;;;;;;0.90;0.50;;;9.40;99.90;;;;;;5089475;28;20478;-84
2021/12/20 12:49:49;;;;;;;0.90;0.50;;;9.70;99.90;;;;;;5086664;28;20419;-84
2021/12/20 12:52:19;;;;;;;0.90;0.60;;;9.70;99.90;;;;;;5089801;28;20439;-85
2021/12/20 12:54:55;;;;;;;0.90;0.50;;;9.50;99.90;;;;;;5088370;28;20439;-86
2021/12/20 12:57:20;;;;;;;0.83;0.50;;;9.80;99.90;;;;;;5065742;28;20431;-86
2021/12/20 12:59:56;;;;;;;0.90;0.50;;;10.00;99.90;;;;;;5085692;28;20438;-85
2021/12/20 13:02:23;;;;;;;0.80;0.50;;;9.70;99.90;;;;;;5071490;28;20194;-84
2021/12/20 13:04:58;;;;;;;0.90;0.50;;;10.10;99.90;;;;;;5068792;28;20419;-84
2021/12/20 13:07:48;;;;;;;0.90;0.50;;;10.40;99.90;;;;;;5082063;28;20455;-84
2021/12/20 13:10:34;;;;;;;0.90;0.50;;;10.60;99.90;;;;;;5082422;28;20437;-84
2021/12/20 13:13:16;;;;;;;0.90;0.50;;;10.90;99.90;;;;;;5069826;28;20455;-84
2021/12/20 13:15:54;;;;;;;0.87;0.50;;;11.00;99.90;;;;;;5088005;28;20446;-84
2021/12/20 13:18:28;;;;;;;0.90;0.50;;;10.70;99.90;;;;;;5082117;28;20444;-84
2021/12/20 13:23:23;;;;;;;0.90;0.50;;;11.00;99.90;;;;;;5087070;28;20500;-84
2021/12/20 13:25:53;;;;;;;1.17;0.70;;;11.10;99.90;;;;;;5065590;28;20355;-83
2021/12/20 13:28:31;;;;;;;0.80;0.50;;;10.50;99.90;;;;;;5087069;28;20419;-84
2021/12/20 13:31:05;;;;;;;0.80;0.50;;;10.10;99.90;;;;;;5066055;28;20523;-84
2021/12/20 13:33:39;;;;;;;0.90;0.50;;;9.50;99.90;;;;;;5088874;28;20420;-82
2021/12/20 13:36:08;;;;;;;0.87;0.50;;;8.60;99.90;;;;;;5087995;28;20442;-83
2021/12/20 13:38:37;;;;;;;0.90;0.50;;;8.30;99.90;;;;;;5088747;28;20419;-84
2021/12/20 13:41:07;;;;;;;0.90;0.50;;;8.10;99.90;;;;;;5088897;28;20435;-84